Rice River, Minnesota
Current Conditions -  °F | °C
As of 12:06 AM on Sunday 23 Nov 2014 (Local Time) from KHZX Reporting Station
Overcast Overcast  
Wind Chill: 28°   Ceiling: 200
Heat Index: 34°   Visibility: 0.5mi
Dew Point: 34°   Wind: 7mph
Humidity: 100%   Direction: 140°SE
Pressure: 29.46"   Gusts: NA
Location:  46.7232°N, 93.3159°W
Report Text: KHZX 230606Z AUTO 14006KT 1/2SM OVC002 01/01 A2946 RMK AO2
Loading
Personal Weather Stations






























Interactive Weather Map New forecast layout! Learn more

10-Day Weather Forecast

Advertisements
Track Severe Weather on mobile